メインページ
METAR-TAF:

METAR-TAF

空港 :

アデレード空港

アデレード, オーストラリア

緯度: 34-56S, 経度: 138-31E, 海抜: 6m

現時点の気象観測

当レポートは16分前の10:00(UTC)に作成
南西の風 17kt
気温 12°C
湿度 58%
気圧 1023 hPa
視程10km以上
高度3600ftの雲はほとんどない

METAR: YPAD 181000Z 23017KT 9999 FEW036 12/04 Q1023

時間: 19:46 (10:16 UTC)

予報

当レポートは4時間45分前の05:31(UTC)に作成
予報は18日の 06時(UTC)から 19日の 12時(UTC)まで有効
西/南西の風 18kt、最大30ktの突風を伴う
視程10km以上
高度3000ftの雲は散在している
弱いにわか雨
18日の 0800時(UTC)から
南西の風 16kt
視程10km以上
高度3500ftの雲は散在している
弱いにわか雨
18日の 2200時(UTC)から
の風 14kt
視程10km以上
高度3000ftの雲は散在している

TAF: YPAD 180531Z 1806/1912 24018G30KT 9999 -SHRA SCT030 FM180800 22016KT 9999 -SHRA SCT035 FM182200 19014KT 9999 NSW SCT030

4,000以上の空港の気象観測と天気予報(METAR報とTAF報)

利用可能な観測所は地図上に黄色い丸と赤い丸で示す。

丸の上にカーソルを重ねると観測所名を参照できる。

次にクリックすると気象観測と天気予報を参照できる。

マップの切り替え:黒色「×」印の緑ボタンをクリックして拡大、「-」印の緑ボタンをクリックして縮小、緑色の三角印をクリックして隣りの地図に切り替え


METAR-TAF: